Time;durP1;ratioP1;P1;durP2;ratioP2;P2;SDS_P1;SDS_P2;PMS_P1;PMS_P2;Temp;Humidity;BMP_temperature;BMP_pressure;BME280_temperature;BME280_humidity;BME280_pressure;Samples;Min_cycle;Max_cycle;Signal;HPM_P1;HPM_P2
2024/02/26 00:02:29;;;;;;;6.07;3.95;;;8.70;66.90;;;;;;5036180;28;20078;-77
2024/02/26 00:05:14;;;;;;;4.50;3.03;;;8.70;66.90;;;;;;5030649;28;20052;-77
2024/02/26 00:07:59;;;;;;;3.47;3.17;;;8.70;66.90;;;;;;5035294;28;20398;-78
2024/02/26 00:10:43;;;;;;;3.85;3.55;;;8.60;66.70;;;;;;5036412;28;20190;-79
2024/02/26 00:13:28;;;;;;;4.43;3.50;;;8.60;66.70;;;;;;5042911;28;20060;-80
2024/02/26 00:16:12;;;;;;;3.63;3.33;;;8.60;66.60;;;;;;5034332;28;20133;-78
2024/02/26 00:18:57;;;;;;;5.05;2.85;;;8.60;66.60;;;;;;5034486;28;20151;-79
2024/02/26 00:21:42;;;;;;;5.28;3.47;;;8.70;66.80;;;;;;5024064;28;20054;-77
2024/02/26 00:24:27;;;;;;;3.92;3.38;;;8.60;66.60;;;;;;5030764;28;20448;-79
2024/02/26 00:27:11;;;;;;;5.80;3.00;;;8.60;66.60;;;;;;5036461;28;20277;-79
2024/02/26 00:29:56;;;;;;;5.32;3.30;;;8.60;66.50;;;;;;5042156;28;20303;-79
2024/02/26 00:32:40;;;;;;;3.17;2.88;;;8.60;66.50;;;;;;5029085;28;20106;-79
2024/02/26 00:35:25;;;;;;;3.38;2.88;;;8.60;66.50;;;;;;5036914;28;20052;-80
2024/02/26 00:38:10;;;;;;;3.17;2.85;;;8.60;66.50;;;;;;5037434;28;20044;-79
2024/02/26 00:40:54;;;;;;;4.28;2.75;;;8.60;66.50;;;;;;5025399;28;20091;-79
2024/02/26 00:43:42;;;;;;;5.00;3.17;;;8.60;66.50;;;;;;5025637;28;20186;-79
2024/02/26 00:46:26;;;;;;;3.42;2.72;;;8.60;66.40;;;;;;5034700;28;20627;-79
2024/02/26 00:49:11;;;;;;;6.15;3.30;;;8.50;66.20;;;;;;5035539;28;20036;-79
2024/02/26 00:51:55;;;;;;;3.60;2.33;;;8.60;66.40;;;;;;5018729;28;20083;-79
2024/02/26 00:54:40;;;;;;;3.72;2.63;;;8.60;66.30;;;;;;5037521;28;20108;-79
2024/02/26 00:57:24;;;;;;;5.03;2.47;;;8.60;66.30;;;;;;5033078;28;20055;-79
2024/02/26 01:00:09;;;;;;;4.38;2.75;;;8.60;66.30;;;;;;5040327;28;20562;-79
2024/02/26 01:02:54;;;;;;;4.20;2.50;;;8.60;66.30;;;;;;5037716;28;20359;-79
2024/02/26 01:05:39;;;;;;;2.85;2.45;;;8.50;66.10;;;;;;5038351;28;20122;-79
2024/02/26 01:08:24;;;;;;;3.92;2.67;;;8.50;66.10;;;;;;5031440;28;20075;-79
2024/02/26 01:11:08;;;;;;;3.15;2.47;;;8.50;66.10;;;;;;5039002;28;20047;-79
2024/02/26 01:13:56;;;;;;;4.13;2.83;;;8.50;66.00;;;;;;5041770;28;20040;-79
2024/02/26 01:16:40;;;;;;;3.75;2.53;;;8.50;66.00;;;;;;5038010;28;20348;-79
2024/02/26 01:19:25;;;;;;;2.70;2.45;;;8.40;65.80;;;;;;5021134;28;20084;-79
2024/02/26 01:22:10;;;;;;;2.88;2.58;;;8.40;65.80;;;;;;5039911;28;20087;-80
2024/02/26 01:24:56;;;;;;;3.90;2.72;;;8.40;65.80;;;;;;5033007;28;20049;-78
2024/02/26 01:27:43;;;;;;;2.92;2.65;;;8.40;65.80;;;;;;5033474;28;20052;-78
2024/02/26 01:30:27;;;;;;;3.05;2.50;;;8.40;65.80;;;;;;5037013;28;20094;-79
2024/02/26 01:33:12;;;;;;;3.65;2.10;;;8.40;65.80;;;;;;5028987;28;20458;-78
2024/02/26 01:35:57;;;;;;;4.65;2.30;;;8.40;65.70;;;;;;5030366;28;20384;-78
2024/02/26 01:38:41;;;;;;;3.33;2.40;;;8.40;65.70;;;;;;5036345;28;20138;-79
2024/02/26 01:41:26;;;;;;;3.88;2.47;;;8.40;65.70;;;;;;5038684;28;20059;-78
2024/02/26 01:44:13;;;;;;;3.88;2.50;;;8.40;65.70;;;;;;5032271;28;20048;-78
2024/02/26 01:46:57;;;;;;;3.00;1.90;;;8.40;65.70;;;;;;5035299;28;20404;-78
2024/02/26 01:49:42;;;;;;;8.65;2.83;;;8.40;65.60;;;;;;5036598;28;20728;-79
2024/02/26 01:52:27;;;;;;;2.90;2.05;;;8.40;65.60;;;;;;5030681;28;20052;-79
2024/02/26 01:55:14;;;;;;;3.55;2.33;;;8.40;65.60;;;;;;5037642;28;20621;-79
2024/02/26 01:57:58;;;;;;;3.10;2.00;;;8.40;65.50;;;;;;5035775;28;20156;-78
2024/02/26 02:00:43;;;;;;;3.45;2.20;;;8.40;65.50;;;;;;5039339;28;20036;-79
2024/02/26 02:03:28;;;;;;;3.60;2.40;;;8.40;65.50;;;;;;5035935;28;20086;-79
2024/02/26 02:06:13;;;;;;;2.15;1.70;;;8.40;65.50;;;;;;5036957;28;20135;-79
2024/02/26 02:08:57;;;;;;;5.03;2.40;;;8.40;65.50;;;;;;5038017;28;20092;-79
2024/02/26 02:11:42;;;;;;;2.92;2.10;;;8.40;65.40;;;;;;5036665;28;20047;-79
2024/02/26 02:14:27;;;;;;;4.63;2.42;;;8.40;65.40;;;;;;5043303;28;20166;-79
2024/02/26 02:17:12;;;;;;;2.83;1.60;;;8.40;65.40;;;;;;5041206;28;20035;-79
2024/02/26 02:19:57;;;;;;;4.72;2.13;;;8.40;65.30;;;;;;5034004;28;20535;-78
2024/02/26 02:22:41;;;;;;;2.55;1.80;;;8.40;65.30;;;;;;5026695;28;20157;-78
2024/02/26 02:25:26;;;;;;;4.50;1.85;;;8.40;65.30;;;;;;5039271;28;20056;-79
2024/02/26 02:28:10;;;;;;;3.00;1.70;;;8.40;65.30;;;;;;5042490;28;20036;-79
2024/02/26 02:30:56;;;;;;;4.15;1.92;;;8.40;65.30;;;;;;5042383;28;20044;-79
2024/02/26 02:33:41;;;;;;;2.78;1.67;;;8.40;65.20;;;;;;5042619;28;20056;-78
2024/02/26 02:36:25;;;;;;;3.85;1.65;;;8.40;65.20;;;;;;5024044;28;20040;-79
2024/02/26 02:39:09;;;;;;;1.92;1.83;;;8.40;65.20;;;;;;5043900;28;20115;-79
2024/02/26 02:41:53;;;;;;;4.22;2.28;;;8.40;65.10;;;;;;5040647;28;20071;-79
2024/02/26 02:44:38;;;;;;;4.25;1.83;;;8.30;64.90;;;;;;5044489;28;20062;-78
2024/02/26 02:47:22;;;;;;;3.08;1.80;;;8.40;65.10;;;;;;5044227;28;20048;-79
2024/02/26 02:50:07;;;;;;;4.40;2.15;;;8.40;65.00;;;;;;5042883;28;20035;-79
2024/02/26 02:52:51;;;;;;;2.33;1.83;;;8.30;64.80;;;;;;5047521;28;20206;-78
2024/02/26 02:55:35;;;;;;;1.70;1.60;;;8.30;64.70;;;;;;5046438;28;20048;-79
2024/02/26 02:58:20;;;;;;;2.67;1.85;;;8.30;64.70;;;;;;5044184;28;20067;-79
2024/02/26 03:01:04;;;;;;;2.45;1.70;;;8.30;64.70;;;;;;5047693;28;20400;-79
2024/02/26 03:03:49;;;;;;;5.45;1.85;;;8.30;64.70;;;;;;5044491;28;20071;-78
2024/02/26 03:06:34;;;;;;;2.08;1.60;;;8.30;64.70;;;;;;5043467;28;20122;-79
2024/02/26 03:09:18;;;;;;;10.73;2.30;;;8.30;64.60;;;;;;5040737;28;20115;-79
2024/02/26 03:12:03;;;;;;;2.72;1.60;;;8.30;64.60;;;;;;5049291;28;20048;-79
2024/02/26 03:14:48;;;;;;;1.73;1.40;;;8.30;64.50;;;;;;5039495;28;20044;-79
2024/02/26 03:17:32;;;;;;;2.30;1.67;;;8.30;64.50;;;;;;5044218;28;20048;-79
2024/02/26 03:20:19;;;;;;;4.47;2.85;;;8.30;64.50;;;;;;5038143;28;20511;-79
2024/02/26 03:23:04;;;;;;;1.95;1.30;;;8.30;64.40;;;;;;5034028;28;20052;-79
2024/02/26 03:25:48;;;;;;;2.95;1.40;;;8.30;64.40;;;;;;5044634;28;20048;-79
2024/02/26 03:28:33;;;;;;;2.80;1.50;;;8.40;64.60;;;;;;5046138;28;20094;-78
2024/02/26 03:31:18;;;;;;;4.03;1.30;;;8.30;64.30;;;;;;5047249;28;20036;-78
2024/02/26 03:34:03;;;;;;;3.28;1.45;;;8.30;64.30;;;;;;5043474;28;20532;-78
2024/02/26 03:36:47;;;;;;;3.92;2.22;;;8.30;64.20;;;;;;5045244;28;20282;-78
2024/02/26 03:39:32;;;;;;;1.60;1.45;;;8.30;64.20;;;;;;5045650;28;20040;-78
2024/02/26 03:42:17;;;;;;;2.63;1.48;;;8.30;64.70;;;;;;5047975;28;20099;-78
2024/02/26 03:45:01;;;;;;;2.17;1.30;;;8.30;64.10;;;;;;5039174;28;20088;-78
2024/02/26 03:47:46;;;;;;;3.28;1.55;;;8.30;64.10;;;;;;5029148;28;20087;-78
2024/02/26 03:50:30;;;;;;;1.45;1.30;;;8.30;64.00;;;;;;5032574;28;20103;-78
2024/02/26 03:53:15;;;;;;;1.58;1.17;;;8.30;64.10;;;;;;5045789;28;20110;-77
2024/02/26 03:56:04;;;;;;;3.33;1.30;;;8.30;64.00;;;;;;5048029;28;20459;-78
2024/02/26 03:58:49;;;;;;;2.70;1.30;;;8.20;63.80;;;;;;5040275;28;20399;-79
2024/02/26 04:01:33;;;;;;;1.80;1.27;;;8.20;63.80;;;;;;5045445;28;20048;-79
2024/02/26 04:04:18;;;;;;;1.60;1.08;;;8.20;63.70;;;;;;5045800;28;20545;-78
2024/02/26 04:07:03;;;;;;;2.50;1.02;;;8.20;63.70;;;;;;5033114;28;20419;-79
2024/02/26 04:09:48;;;;;;;2.45;1.45;;;8.20;63.70;;;;;;5047706;28;20036;-78
2024/02/26 04:12:32;;;;;;;3.03;1.95;;;8.20;63.60;;;;;;5040875;28;20087;-78
2024/02/26 04:15:17;;;;;;;2.42;1.42;;;8.20;63.60;;;;;;5042995;28;20103;-78
2024/02/26 04:18:02;;;;;;;1.83;1.38;;;8.20;63.60;;;;;;5038143;28;20043;-78
2024/02/26 04:20:47;;;;;;;1.48;1.38;;;8.10;63.40;;;;;;5032784;28;20392;-78
2024/02/26 04:23:31;;;;;;;3.60;1.23;;;8.10;63.40;;;;;;5041210;28;20325;-78
2024/02/26 04:26:16;;;;;;;4.78;1.50;;;8.10;63.40;;;;;;5039638;28;20564;-78
2024/02/26 04:29:00;;;;;;;3.60;1.70;;;8.10;63.40;;;;;;5041653;28;20129;-78
2024/02/26 04:31:46;;;;;;;2.03;1.52;;;8.10;63.40;;;;;;5043657;28;20060;-78
2024/02/26 04:34:31;;;;;;;3.10;1.50;;;8.10;63.40;;;;;;5041606;28;20047;-78
2024/02/26 04:37:16;;;;;;;3.75;1.60;;;8.10;63.40;;;;;;5046807;28;20423;-78
2024/02/26 04:40:01;;;;;;;2.20;1.65;;;8.00;63.20;;;;;;5044560;28;20760;-78
2024/02/26 04:42:45;;;;;;;3.05;1.75;;;8.00;63.20;;;;;;5047074;28;20119;-78
2024/02/26 04:45:31;;;;;;;2.20;1.90;;;8.00;63.20;;;;;;5044856;28;20594;-78
2024/02/26 04:48:16;;;;;;;3.58;1.73;;;8.00;63.10;;;;;;5032466;28;20524;-78
2024/02/26 04:51:01;;;;;;;4.18;1.60;;;8.00;63.20;;;;;;5035220;28;20588;-78
2024/02/26 04:53:45;;;;;;;2.25;1.88;;;8.00;63.10;;;;;;5036702;28;20056;-79
2024/02/26 04:56:30;;;;;;;3.03;1.85;;;8.00;63.10;;;;;;5040529;28;20068;-79
2024/02/26 04:59:14;;;;;;;4.45;2.13;;;8.00;63.10;;;;;;5042162;28;20039;-78
2024/02/26 05:01:59;;;;;;;3.47;2.28;;;8.00;63.10;;;;;;5037850;28;20115;-78
2024/02/26 05:04:43;;;;;;;2.97;2.15;;;8.00;63.10;;;;;;5041961;28;20116;-79
2024/02/26 05:07:28;;;;;;;5.10;2.63;;;8.00;63.10;;;;;;5042419;28;20082;-78
2024/02/26 05:10:13;;;;;;;3.90;1.90;;;8.00;63.10;;;;;;5046372;28;20035;-78
2024/02/26 05:12:57;;;;;;;3.20;2.15;;;8.00;63.10;;;;;;5044067;28;20084;-79
2024/02/26 05:15:42;;;;;;;4.22;2.33;;;8.00;63.10;;;;;;5044050;28;20032;-79
2024/02/26 05:18:27;;;;;;;2.53;1.85;;;8.00;63.10;;;;;;5043785;28;20052;-79
2024/02/26 05:21:12;;;;;;;3.17;1.83;;;8.00;63.10;;;;;;5029521;28;20118;-78
2024/02/26 05:23:56;;;;;;;3.45;2.67;;;8.00;63.00;;;;;;5029198;28;20106;-78
2024/02/26 05:26:41;;;;;;;4.93;2.00;;;8.00;63.00;;;;;;5044699;28;20099;-78
2024/02/26 05:29:25;;;;;;;3.13;2.30;;;8.00;63.00;;;;;;5043928;28;20566;-78
2024/02/26 05:32:10;;;;;;;1.98;1.88;;;8.00;63.00;;;;;;5039425;28;20195;-78
2024/02/26 05:34:54;;;;;;;2.25;1.75;;;7.90;62.80;;;;;;5026470;28;20068;-78
2024/02/26 05:37:39;;;;;;;3.25;2.25;;;7.90;62.80;;;;;;5036807;28;20090;-78
2024/02/26 05:40:23;;;;;;;2.97;2.30;;;8.00;63.00;;;;;;5041783;28;20094;-78
2024/02/26 05:43:08;;;;;;;3.33;2.15;;;8.00;63.00;;;;;;5045233;28;20039;-78
2024/02/26 05:45:53;;;;;;;4.85;1.85;;;8.00;63.00;;;;;;5037869;28;20130;-78
2024/02/26 05:48:37;;;;;;;3.05;1.70;;;8.00;62.90;;;;;;5036681;28;20595;-78
2024/02/26 05:51:22;;;;;;;3.65;1.80;;;8.00;62.90;;;;;;5032068;28;20086;-77
2024/02/26 05:54:08;;;;;;;5.32;1.90;;;8.00;62.90;;;;;;5041864;28;20090;-78
2024/02/26 05:56:52;;;;;;;2.60;1.40;;;8.00;62.90;;;;;;5039488;28;20064;-78
2024/02/26 05:59:37;;;;;;;2.40;1.90;;;8.00;62.80;;;;;;5035130;28;20086;-79
2024/02/26 06:02:21;;;;;;;3.72;1.65;;;8.00;62.80;;;;;;5034177;28;20086;-78
2024/02/26 06:05:08;;;;;;;2.05;1.35;;;8.00;62.80;;;;;;5034627;28;20586;-78
2024/02/26 06:07:52;;;;;;;2.28;1.60;;;8.00;62.80;;;;;;5023244;28;20071;-78
2024/02/26 06:10:36;;;;;;;4.47;1.60;;;8.00;62.80;;;;;;5037750;28;20056;-78
2024/02/26 06:13:21;;;;;;;3.40;1.48;;;8.00;62.70;;;;;;5038814;28;20234;-78
2024/02/26 06:16:08;;;;;;;1.58;1.27;;;8.00;62.70;;;;;;5027942;28;20039;-78
2024/02/26 06:18:53;;;;;;;3.30;1.48;;;8.00;62.70;;;;;;5031733;28;20095;-80
2024/02/26 06:21:37;;;;;;;2.33;1.40;;;8.00;62.70;;;;;;5036980;28;20463;-80
2024/02/26 06:24:22;;;;;;;4.38;1.60;;;8.00;62.70;;;;;;5038652;28;20106;-80
2024/02/26 06:27:08;;;;;;;1.77;0.98;;;8.00;62.70;;;;;;5045729;28;20060;-78
2024/02/26 06:29:52;;;;;;;4.07;1.65;;;8.00;62.60;;;;;;5032680;28;20515;-79
2024/02/26 06:32:37;;;;;;;2.92;1.52;;;8.00;62.60;;;;;;5050354;28;20505;-79
2024/02/26 06:35:22;;;;;;;2.28;1.20;;;8.00;62.60;;;;;;5034630;28;20048;-79
2024/02/26 06:38:07;;;;;;;4.07;1.38;;;8.00;62.60;;;;;;5036729;28;20048;-79
2024/02/26 06:40:52;;;;;;;1.63;1.30;;;8.00;62.60;;;;;;5038258;28;20396;-80
2024/02/26 06:43:36;;;;;;;2.28;1.50;;;8.10;62.80;;;;;;5031451;28;20130;-79
2024/02/26 06:46:22;;;;;;;2.47;1.17;;;8.00;62.60;;;;;;5042187;28;20149;-81
2024/02/26 06:49:06;;;;;;;5.22;2.10;;;8.00;62.50;;;;;;5029059;28;20110;-79
2024/02/26 06:51:51;;;;;;;5.25;1.48;;;8.00;62.70;;;;;;5029715;28;20068;-79
2024/02/26 06:54:35;;;;;;;4.88;1.83;;;8.10;63.10;;;;;;5037352;28;20043;-79
2024/02/26 06:57:20;;;;;;;3.72;1.30;;;8.20;63.20;;;;;;5031683;28;20056;-78
2024/02/26 07:00:05;;;;;;;5.70;1.45;;;8.20;63.30;;;;;;5039115;28;20054;-79
2024/02/26 07:02:49;;;;;;;4.75;1.55;;;8.20;63.30;;;;;;5040427;28;20448;-78
2024/02/26 07:05:34;;;;;;;3.50;1.60;;;8.20;63.20;;;;;;5031690;28;20098;-79
2024/02/26 07:08:19;;;;;;;3.70;1.95;;;8.30;63.40;;;;;;5021121;28;20503;-78
2024/02/26 07:11:07;;;;;;;2.85;1.50;;;8.30;63.50;;;;;;5037200;28;20661;-79
2024/02/26 07:13:51;;;;;;;6.65;1.90;;;8.30;63.70;;;;;;5032805;28;20064;-78
2024/02/26 07:16:36;;;;;;;4.45;1.33;;;8.30;63.70;;;;;;5038663;28;20136;-77
2024/02/26 07:19:20;;;;;;;24.27;6.30;;;8.30;63.70;;;;;;5036366;28;20507;-78
2024/02/26 07:22:05;;;;;;;15.93;5.40;;;8.30;63.80;;;;;;5035720;28;20107;-78
2024/02/26 07:24:49;;;;;;;17.58;4.40;;;8.40;64.00;;;;;;5035855;28;20589;-77
2024/02/26 07:27:34;;;;;;;13.55;3.97;;;8.30;63.80;;;;;;5037392;28;20128;-77
2024/02/26 07:30:19;;;;;;;10.90;3.22;;;8.30;63.80;;;;;;5021197;28;20072;-77
2024/02/26 07:33:04;;;;;;;11.30;3.22;;;8.40;64.00;;;;;;5032909;28;20060;-78
2024/02/26 07:35:49;;;;;;;8.43;3.22;;;8.40;63.90;;;;;;5034410;28;20094;-77
2024/02/26 07:38:33;;;;;;;8.65;2.95;;;8.40;64.00;;;;;;5035035;28;20052;-78
2024/02/26 07:41:18;;;;;;;8.40;3.00;;;8.40;63.90;;;;;;5034761;28;20448;-76
2024/02/26 07:44:02;;;;;;;8.48;2.83;;;8.40;63.90;;;;;;5035957;28;20175;-76
2024/02/26 07:46:47;;;;;;;6.80;2.03;;;8.40;63.90;;;;;;5038559;28;20132;-77
2024/02/26 07:49:31;;;;;;;6.72;2.55;;;8.40;63.80;;;;;;5030447;28;20116;-77
2024/02/26 07:52:16;;;;;;;8.57;2.53;;;8.40;63.80;;;;;;5037002;28;20064;-77
2024/02/26 07:55:01;;;;;;;6.82;2.67;;;8.40;63.80;;;;;;5031873;28;20090;-77
2024/02/26 07:57:45;;;;;;;5.55;2.03;;;8.40;63.80;;;;;;5028311;28;20628;-77
2024/02/26 08:00:30;;;;;;;4.70;1.80;;;8.40;63.70;;;;;;5034701;28;20083;-77
2024/02/26 08:03:15;;;;;;;7.03;2.15;;;8.40;63.60;;;;;;5034959;28;20051;-77
2024/02/26 08:06:00;;;;;;;6.57;2.15;;;8.40;63.50;;;;;;5037970;28;20048;-77
2024/02/26 08:08:45;;;;;;;5.57;2.22;;;8.40;63.50;;;;;;5038132;28;20031;-77
2024/02/26 08:11:29;;;;;;;6.40;1.50;;;8.50;63.60;;;;;;5038975;28;20425;-77
2024/02/26 08:14:14;;;;;;;6.60;2.08;;;8.50;63.50;;;;;;5032956;28;20492;-77
2024/02/26 08:16:59;;;;;;;3.70;1.88;;;8.50;63.40;;;;;;5038559;28;20166;-77
2024/02/26 08:19:43;;;;;;;3.50;1.40;;;8.50;63.40;;;;;;5032062;28;21147;-77
2024/02/26 08:22:27;;;;;;;5.15;1.60;;;8.50;63.30;;;;;;5047557;28;20660;-77
2024/02/26 08:25:12;;;;;;;5.80;1.80;;;8.60;63.40;;;;;;5029039;28;20039;-78
2024/02/26 08:27:58;;;;;;;4.30;1.75;;;8.60;63.30;;;;;;5033184;28;20147;-77
2024/02/26 08:30:42;;;;;;;5.80;1.70;;;8.60;63.20;;;;;;5033382;28;20076;-78
2024/02/26 08:33:26;;;;;;;4.78;1.65;;;8.70;63.30;;;;;;5036419;28;20327;-77
2024/02/26 08:36:11;;;;;;;4.15;1.45;;;8.70;63.20;;;;;;5034646;28;20067;-77
2024/02/26 08:38:56;;;;;;;1.90;1.20;;;8.80;63.30;;;;;;5037778;28;20047;-77
2024/02/26 08:41:40;;;;;;;1.50;1.40;;;8.70;63.00;;;;;;5033337;28;20032;-76
2024/02/26 08:44:26;;;;;;;3.10;1.35;;;8.80;63.10;;;;;;5041896;28;20048;-77
2024/02/26 08:47:10;;;;;;;3.45;1.50;;;8.90;63.20;;;;;;5038004;28;20088;-78
2024/02/26 08:49:55;;;;;;;1.90;1.17;;;8.90;63.00;;;;;;5032847;28;20623;-77
2024/02/26 08:52:40;;;;;;;2.58;1.30;;;9.00;63.00;;;;;;5036728;28;20049;-77
2024/02/26 08:55:24;;;;;;;2.50;1.02;;;9.00;62.90;;;;;;5035985;28;20097;-78
2024/02/26 08:58:09;;;;;;;2.50;1.40;;;9.00;62.80;;;;;;5035944;28;20051;-77
2024/02/26 09:00:54;;;;;;;2.38;1.40;;;9.10;62.90;;;;;;5046351;28;20133;-78
2024/02/26 09:03:40;;;;;;;4.05;1.85;;;9.20;62.90;;;;;;5039175;28;20415;-77
2024/02/26 09:06:24;;;;;;;4.72;1.48;;;9.20;62.90;;;;;;5044454;28;20111;-77
2024/02/26 09:09:09;;;;;;;3.22;1.35;;;9.20;62.70;;;;;;5051788;28;20766;-78
2024/02/26 09:11:55;;;;;;;2.65;2.25;;;9.30;62.80;;;;;;5039745;28;20065;-77
2024/02/26 09:14:39;;;;;;;2.17;1.20;;;9.40;62.90;;;;;;5035846;28;20528;-77
2024/02/26 09:17:24;;;;;;;2.70;1.52;;;9.40;62.70;;;;;;5033600;28;20407;-78
2024/02/26 09:20:09;;;;;;;1.65;1.15;;;9.50;62.70;;;;;;5037928;28;20040;-77
2024/02/26 09:22:54;;;;;;;1.45;1.20;;;9.60;62.80;;;;;;5046940;28;20352;-78
2024/02/26 09:25:38;;;;;;;4.68;1.42;;;9.60;62.60;;;;;;5032134;28;20053;-77
2024/02/26 09:28:22;;;;;;;1.40;1.30;;;9.70;62.70;;;;;;5032091;28;20087;-77
2024/02/26 09:31:07;;;;;;;2.13;1.58;;;9.80;62.70;;;;;;5044953;28;20151;-77
2024/02/26 09:33:51;;;;;;;3.60;1.65;;;9.80;62.60;;;;;;5034276;28;20060;-77
2024/02/26 09:36:36;;;;;;;4.55;1.92;;;9.80;62.50;;;;;;5040793;28;20051;-76
2024/02/26 09:39:22;;;;;;;2.08;1.25;;;9.90;62.60;;;;;;5024351;28;20332;-77
2024/02/26 09:42:09;;;;;;;3.63;1.33;;;9.90;62.40;;;;;;5042296;28;20076;-77
2024/02/26 09:44:57;;;;;;;3.08;1.48;;;10.00;62.50;;;;;;5034259;28;20087;-76
2024/02/26 09:47:42;;;;;;;4.45;1.52;;;10.00;62.40;;;;;;5023469;28;20036;-76
2024/02/26 09:50:26;;;;;;;2.28;1.42;;;10.10;62.50;;;;;;5027993;28;20114;-77
2024/02/26 09:53:12;;;;;;;3.17;1.70;;;10.10;62.30;;;;;;5042610;28;20167;-77
2024/02/26 09:56:00;;;;;;;3.45;1.67;;;10.20;62.30;;;;;;5042531;28;20063;-77
2024/02/26 09:58:48;;;;;;;4.78;1.30;;;10.30;62.40;;;;;;5031774;28;20394;-77
2024/02/26 10:01:34;;;;;;;2.70;1.10;;;10.40;62.30;;;;;;5031522;28;20207;-77
2024/02/26 10:04:21;;;;;;;2.25;1.30;;;10.50;62.20;;;;;;5032817;28;20040;-76
2024/02/26 10:07:13;;;;;;;2.45;1.23;;;10.60;62.20;;;;;;5034603;28;20060;-76
2024/02/26 10:09:58;;;;;;;2.47;1.30;;;10.70;62.10;;;;;;5045579;28;20388;-77
2024/02/26 10:12:42;;;;;;;3.35;1.48;;;10.80;62.10;;;;;;5038311;28;20044;-78
2024/02/26 10:15:27;;;;;;;2.03;1.40;;;10.80;61.90;;;;;;5033221;28;20112;-77
2024/02/26 10:18:12;;;;;;;4.75;1.27;;;10.90;61.90;;;;;;5035132;28;20096;-79
2024/02/26 10:21:01;;;;;;;1.48;1.13;;;11.00;61.90;;;;;;5035602;28;20447;-77
2024/02/26 10:23:47;;;;;;;3.08;1.30;;;11.10;61.90;;;;;;5044907;28;20331;-77
2024/02/26 10:26:31;;;;;;;1.33;1.10;;;11.10;61.70;;;;;;5032985;28;20187;-77
2024/02/26 10:29:16;;;;;;;1.95;1.08;;;11.20;61.70;;;;;;5040084;28;20079;-77
2024/02/26 10:32:01;;;;;;;3.85;1.30;;;11.20;61.60;;;;;;5042251;28;20401;-77
2024/02/26 10:34:46;;;;;;;2.33;1.00;;;11.30;61.60;;;;;;5054254;28;20340;-77
2024/02/26 10:37:30;;;;;;;3.10;1.27;;;11.40;61.70;;;;;;5046479;28;20096;-77
2024/02/26 10:40:16;;;;;;;1.30;1.00;;;11.40;61.40;;;;;;5033652;28;20941;-77
2024/02/26 10:43:01;;;;;;;2.42;1.25;;;11.50;61.40;;;;;;5027591;28;20041;-78
2024/02/26 10:45:47;;;;;;;2.10;1.00;;;11.60;61.40;;;;;;5047013;28;20124;-78
2024/02/26 10:48:31;;;;;;;1.42;1.05;;;11.70;61.40;;;;;;5031915;28;20071;-78
2024/02/26 10:51:17;;;;;;;2.25;1.10;;;11.70;61.20;;;;;;5036765;28;20400;-77
2024/02/26 10:54:06;;;;;;;2.17;0.80;;;11.80;61.70;;;;;;5024161;28;20052;-78
2024/02/26 10:56:52;;;;;;;1.48;1.00;;;11.90;61.10;;;;;;5038571;28;20230;-77
2024/02/26 10:59:40;;;;;;;2.47;1.20;;;12.00;61.10;;;;;;5038825;28;20393;-77
2024/02/26 11:02:25;;;;;;;2.70;1.23;;;12.10;61.00;;;;;;5032923;28;20123;-78
2024/02/26 11:05:11;;;;;;;1.42;1.25;;;12.10;60.80;;;;;;5038247;28;20075;-78
2024/02/26 11:07:57;;;;;;;1.00;0.93;;;12.20;60.80;;;;;;5034217;28;20052;-77
2024/02/26 11:10:42;;;;;;;2.20;1.10;;;12.30;60.80;;;;;;5038293;28;20039;-77
2024/02/26 11:13:31;;;;;;;1.00;0.80;;;12.30;60.60;;;;;;5032567;28;20242;-78
2024/02/26 11:16:23;;;;;;;2.15;0.88;;;12.40;60.50;;;;;;5030504;28;20102;-78
2024/02/26 11:19:10;;;;;;;2.47;1.25;;;12.50;60.50;;;;;;5029778;28;20563;-78
2024/02/26 11:21:54;;;;;;;1.98;0.90;;;12.60;60.40;;;;;;5029939;28;20056;-78
2024/02/26 11:24:41;;;;;;;0.88;0.80;;;12.70;60.30;;;;;;5034283;28;20469;-77
2024/02/26 11:27:30;;;;;;;1.80;0.73;;;12.70;60.10;;;;;;5035067;28;20122;-76
2024/02/26 11:30:17;;;;;;;2.13;1.20;;;12.90;60.20;;;;;;5040277;28;20407;-76
2024/02/26 11:33:03;;;;;;;3.67;0.85;;;13.00;60.10;;;;;;5034143;28;20409;-77
2024/02/26 11:35:47;;;;;;;2.78;1.08;;;13.00;59.90;;;;;;5039019;28;20124;-77
2024/02/26 11:38:33;;;;;;;1.35;0.73;;;13.10;59.90;;;;;;5023633;28;20078;-77
2024/02/26 11:41:18;;;;;;;1.75;0.95;;;13.10;59.60;;;;;;5043122;28;20628;-77
2024/02/26 11:44:05;;;;;;;1.70;0.77;;;13.20;59.60;;;;;;5041087;28;20278;-77
2024/02/26 11:46:50;;;;;;;2.28;0.90;;;13.20;59.40;;;;;;5031669;28;20466;-78
2024/02/26 11:49:35;;;;;;;2.15;0.98;;;13.30;59.40;;;;;;5030882;28;20106;-78
2024/02/26 11:52:20;;;;;;;0.90;0.70;;;13.30;59.20;;;;;;5044886;28;20114;-78
2024/02/26 11:55:05;;;;;;;4.07;1.00;;;13.30;59.00;;;;;;5042566;28;20037;-78
2024/02/26 11:57:49;;;;;;;1.77;0.80;;;13.30;59.00;;;;;;5035327;28;20036;-78
2024/02/26 12:00:34;;;;;;;1.80;0.80;;;13.20;58.80;;;;;;5048714;28;20064;-78
2024/02/26 12:03:20;;;;;;;1.85;0.98;;;13.20;58.80;;;;;;5043032;28;20136;-78
2024/02/26 12:06:04;;;;;;;2.08;0.90;;;13.20;58.80;;;;;;5038646;28;20179;-77
2024/02/26 12:08:49;;;;;;;4.10;1.52;;;13.20;58.80;;;;;;5032135;28;20071;-77
2024/02/26 12:11:38;;;;;;;1.70;1.05;;;13.10;58.50;;;;;;5028214;28;20111;-77
2024/02/26 12:14:26;;;;;;;2.00;1.20;;;13.20;58.60;;;;;;5022416;28;20047;-78
2024/02/26 12:17:20;;;;;;;2.53;1.00;;;13.20;58.40;;;;;;5035007;28;20067;-77
2024/02/26 12:20:10;;;;;;;1.70;0.90;;;13.30;58.40;;;;;;5034527;28;20096;-77
2024/02/26 12:22:56;;;;;;;1.27;0.90;;;13.30;58.30;;;;;;5029878;28;20047;-77
2024/02/26 12:25:41;;;;;;;1.88;0.80;;;13.30;58.10;;;;;;5033680;28;20586;-78
2024/02/26 12:28:29;;;;;;;2.47;0.80;;;13.40;58.10;;;;;;5035882;28;20222;-78
2024/02/26 12:31:14;;;;;;;2.05;1.02;;;13.50;58.00;;;;;;5033162;28;20486;-77
2024/02/26 12:34:00;;;;;;;2.88;0.90;;;13.60;58.00;;;;;;5038762;28;20035;-77
2024/02/26 12:36:45;;;;;;;2.20;0.85;;;13.60;57.80;;;;;;5033724;28;20040;-77
2024/02/26 12:39:30;;;;;;;1.27;0.80;;;13.60;57.60;;;;;;5041853;28;20083;-78
2024/02/26 12:42:14;;;;;;;1.25;0.90;;;13.60;57.60;;;;;;5020691;28;20438;-77
2024/02/26 12:45:00;;;;;;;1.58;0.82;;;13.60;57.50;;;;;;5027963;28;20153;-78
2024/02/26 12:47:46;;;;;;;2.08;1.00;;;13.70;57.60;;;;;;5028329;28;20491;-78
2024/02/26 12:50:31;;;;;;;1.63;0.80;;;13.80;57.60;;;;;;5024255;28;20488;-77
2024/02/26 12:53:17;;;;;;;1.67;0.80;;;13.80;57.50;;;;;;5041491;28;20488;-78
2024/02/26 12:56:03;;;;;;;3.33;1.70;;;13.80;57.30;;;;;;5030193;28;20447;-78
2024/02/26 12:58:50;;;;;;;2.88;1.73;;;13.80;57.20;;;;;;5031390;28;20917;-78
2024/02/26 13:01:34;;;;;;;1.85;1.00;;;13.80;57.10;;;;;;5034648;28;20048;-78
2024/02/26 13:04:19;;;;;;;1.55;0.75;;;13.80;57.10;;;;;;5027225;28;20095;-78
2024/02/26 13:07:05;;;;;;;1.27;1.10;;;13.90;57.20;;;;;;5024694;28;20091;-78
2024/02/26 13:09:51;;;;;;;1.55;1.13;;;13.90;57.10;;;;;;5037687;28;20452;-77
2024/02/26 13:12:35;;;;;;;1.65;0.93;;;14.00;57.10;;;;;;5034550;28;20042;-78
2024/02/26 13:15:22;;;;;;;2.30;0.98;;;14.00;56.90;;;;;;5032318;28;20527;-78
2024/02/26 13:18:11;;;;;;;2.72;1.20;;;14.10;57.00;;;;;;5019974;28;20044;-78
2024/02/26 13:21:11;;;;;;;1.95;0.88;;;14.10;56.90;;;;;;5041270;28;20538;-78
2024/02/26 13:23:56;;;;;;;1.10;0.73;;;14.20;56.70;;;;;;5031656;28;20421;-77
2024/02/26 13:26:41;;;;;;;1.05;0.65;;;14.30;56.70;;;;;;5029007;28;20043;-78
2024/02/26 13:29:25;;;;;;;2.72;0.82;;;14.30;56.40;;;;;;5034141;28;20087;-78
2024/02/26 13:32:12;;;;;;;2.05;0.70;;;14.30;56.30;;;;;;5034375;28;20549;-79
2024/02/26 13:35:11;;;;;;;1.65;0.73;;;14.30;56.30;;;;;;5029654;28;20044;-78
2024/02/26 13:37:56;;;;;;;1.38;0.93;;;14.30;56.10;;;;;;5027775;28;20048;-79
2024/02/26 13:40:40;;;;;;;3.28;1.75;;;14.40;56.40;;;;;;5027519;28;20482;-77
2024/02/26 13:43:25;;;;;;;1.70;0.80;;;14.40;56.20;;;;;;5028201;28;20040;-77
2024/02/26 13:46:10;;;;;;;1.05;0.82;;;14.50;56.10;;;;;;5040921;28;20058;-78
2024/02/26 13:48:55;;;;;;;2.58;0.70;;;14.40;55.80;;;;;;5039546;28;20039;-78
2024/02/26 13:51:40;;;;;;;2.25;0.70;;;14.40;55.70;;;;;;5033452;28;20036;-78
2024/02/26 13:54:25;;;;;;;0.80;0.50;;;14.40;55.70;;;;;;5043303;28;20100;-78
2024/02/26 13:57:09;;;;;;;0.63;0.50;;;14.50;55.80;;;;;;5035514;28;20082;-78
2024/02/26 13:59:55;;;;;;;1.70;0.85;;;14.60;55.80;;;;;;5045098;28;20400;-78
2024/02/26 14:02:39;;;;;;;2.85;0.80;;;14.70;55.70;;;;;;5037479;28;20091;-78
2024/02/26 14:05:24;;;;;;;2.05;0.80;;;14.80;55.60;;;;;;5038143;28;20064;-78
2024/02/26 14:08:08;;;;;;;0.70;0.65;;;14.80;55.30;;;;;;5041363;28;20067;-78
2024/02/26 14:10:53;;;;;;;1.35;0.80;;;14.90;55.30;;;;;;5034228;28;20430;-78
2024/02/26 14:13:37;;;;;;;1.23;0.68;;;14.90;55.30;;;;;;5049655;28;20095;-78
2024/02/26 14:16:22;;;;;;;1.52;0.70;;;14.90;55.20;;;;;;5036441;28;20110;-78
2024/02/26 14:19:07;;;;;;;2.03;0.80;;;14.90;55.10;;;;;;5033823;28;20520;-78
2024/02/26 14:21:52;;;;;;;1.15;0.60;;;14.90;55.00;;;;;;5037582;28;20060;-78
2024/02/26 14:24:36;;;;;;;1.02;0.63;;;14.90;54.90;;;;;;5034524;28;20419;-77
2024/02/26 14:27:22;;;;;;;1.92;0.50;;;14.90;54.90;;;;;;5040821;28;20146;-78